Time;durP1;ratioP1;P1;durP2;ratioP2;P2;SDS_P1;SDS_P2;PMS_P1;PMS_P2;Temp;Humidity;BMP_temperature;BMP_pressure;BME280_temperature;BME280_humidity;BME280_pressure;Samples;Min_cycle;Max_cycle;Signal;HPM_P1;HPM_P2
2021/09/23 03:12:16;;;;;;;;;;;;;;;4.96;80.95;100241.69;5090851;28;20333;-78
2021/09/23 03:14:41;;;;;;;;;;;;;;;4.93;80.60;100237.38;5074276;28;19923;-79
2021/09/23 03:17:06;;;;;;;;;;;;;;;4.93;80.73;100225.97;5092725;28;20009;-90
2021/09/23 03:19:33;;;;;;;;;;;;;;;4.91;80.84;100219.00;5074429;28;20286;-83
2021/09/23 03:21:58;;;;;;;;;;;;;;;4.91;80.85;100208.50;5074246;28;20416;-79
2021/09/23 03:24:23;;;;;;;;;;;;;;;4.95;81.20;100211.94;5073009;28;19915;-79
2021/09/23 03:26:48;;;;;;;;;;;;;;;4.89;81.18;100212.88;5074156;28;20046;-79
2021/09/23 03:29:14;;;;;;;;;;;;;;;4.89;80.89;100204.16;5085932;28;19946;-79
2021/09/23 03:31:39;;;;;;;;;;;;;;;4.94;80.68;100199.69;5074413;28;19928;-79
2021/09/23 03:34:04;;;;;;;;;;;;;;;4.87;81.17;100206.78;5087556;28;19912;-79
2021/09/23 03:36:30;;;;;;;;;;;;;;;4.93;80.62;100208.50;5074291;28;19942;-78
2021/09/23 03:38:55;;;;;;;;;;;;;;;4.94;80.63;100207.56;5090780;28;20003;-79
2021/09/23 03:41:23;;;;;;;;;;;;;;;4.95;81.35;100198.81;5074126;28;19969;-78
2021/09/23 03:43:49;;;;;;;;;;;;;;;5.01;81.13;100197.84;5091572;28;19922;-78
2021/09/23 03:46:14;;;;;;;;;;;;;;;4.88;80.86;100195.41;5092027;28;19916;-83
2021/09/23 03:48:39;;;;;;;;;;;;;;;4.91;81.30;100187.50;5092210;28;19924;-78
2021/09/23 03:51:05;;;;;;;;;;;;;;;4.95;81.49;100182.22;5091740;28;19912;-78
2021/09/23 03:53:31;;;;;;;;;;;;;;;4.93;80.76;100173.47;5091243;28;19920;-78
2021/09/23 03:55:56;;;;;;;;;;;;;;;4.97;80.57;100175.16;5074185;28;20367;-87
2021/09/23 03:58:22;;;;;;;;;;;;;;;4.96;80.81;100173.41;5092037;28;19939;-79
2021/09/23 04:00:47;;;;;;;;;;;;;;;5.06;79.98;100169.78;5092019;28;19955;-79
2021/09/23 04:03:13;;;;;;;;;;;;;;;5.04;79.99;100168.91;5091916;28;19923;-79
2021/09/23 04:05:38;;;;;;;;;;;;;;;5.07;79.94;100175.03;5091973;28;19920;-78
2021/09/23 04:08:04;;;;;;;;;;;;;;;5.01;79.66;100190.88;5091774;28;20422;-90
2021/09/23 04:10:29;;;;;;;;;;;;;;;5.04;79.18;100187.31;5089767;28;19920;-78
2021/09/23 04:12:55;;;;;;;;;;;;;;;4.90;79.28;100191.00;5091740;28;19920;-88
2021/09/23 04:15:22;;;;;;;;;;;;;;;4.93;79.80;100199.72;5092000;28;20282;-78
2021/09/23 04:17:47;;;;;;;;;;;;;;;4.96;79.27;100190.03;5091742;28;20007;-78
2021/09/23 04:20:12;;;;;;;;;;;;;;;4.99;78.84;100189.13;5091780;28;20406;-80
2021/09/23 04:22:37;;;;;;;;;;;;;;;4.96;79.42;100173.41;5091575;28;19916;-78
2021/09/23 04:25:03;;;;;;;;;;;;;;;4.95;79.22;100164.69;5072222;28;19920;-77
2021/09/23 04:27:28;;;;;;;;;;;;;;;5.00;78.77;100172.50;5091690;28;19916;-78
2021/09/23 04:29:53;;;;;;;;;;;;;;;5.04;78.74;100171.56;5091757;28;19989;-79
2021/09/23 04:32:19;;;;;;;;;;;;;;;5.08;78.51;100170.63;5091633;28;19951;-77
2021/09/23 07:45:50;;;;;;;;;;;;;;;6.44;76.69;100206.06;5348808;22;19940;-77
2021/09/23 07:48:16;;;;;;;;;;;;;;;6.44;76.71;100200.81;5090766;28;19920;-77
2021/09/23 07:50:42;;;;;;;;;;;;;;;6.43;76.80;100195.56;5073132;28;19973;-80
2021/09/23 07:53:07;;;;;;;;;;;;;;;6.48;77.09;100199.00;5092150;28;19917;-84
2021/09/23 07:55:32;;;;;;;;;;;;;;;6.47;77.27;100192.84;5091830;28;19923;-77
2021/09/23 07:57:57;;;;;;;;;;;;;;;6.54;77.29;100194.50;5092176;28;19973;-77
2021/09/23 08:00:23;;;;;;;;;;;;;;;6.57;77.13;100193.53;5090667;28;20022;-77
2021/09/23 08:02:48;;;;;;;;;;;;;;;6.52;78.23;100200.66;5091936;28;19973;-78
2021/09/23 08:05:15;;;;;;;;;;;;;;;6.65;77.47;100196.03;5091925;28;20002;-78
2021/09/23 08:07:43;;;;;;;;;;;;;;;6.77;77.38;100189.66;5092116;28;20402;-78
2021/09/23 08:10:09;;;;;;;;;;;;;;;6.67;77.61;100184.56;5073150;28;19924;-87
2021/09/23 08:12:34;;;;;;;;;;;;;;;6.68;77.86;100167.00;5073714;28;19916;-77
2021/09/23 08:15:00;;;;;;;;;;;;;;;6.81;77.56;100159.69;5072394;28;20002;-77
2021/09/23 08:17:25;;;;;;;;;;;;;;;6.86;77.59;100163.09;5073791;28;19923;-85
2021/09/23 08:19:51;;;;;;;;;;;;;;;6.72;78.34;100161.63;5073667;28;20374;-84
2021/09/23 08:22:17;;;;;;;;;;;;;;;6.78;78.26;100162.41;5073445;28;19963;-77
2021/09/23 08:24:43;;;;;;;;;;;;;;;6.88;78.53;100171.84;5073645;28;20379;-77
2021/09/23 08:27:08;;;;;;;;;;;;;;;7.02;78.24;100180.31;5091803;28;19916;-77
2021/09/23 08:29:33;;;;;;;;;;;;;;;7.00;78.63;100176.84;5090589;28;20339;-77
2021/09/23 08:31:59;;;;;;;;;;;;;;;7.06;78.86;100174.06;5073597;28;19923;-88
2021/09/23 08:34:24;;;;;;;;;;;;;;;7.07;78.57;100162.63;5073572;28;19923;-77
2021/09/23 08:36:49;;;;;;;;;;;;;;;7.14;78.83;100149.31;5075331;28;20019;-77
2021/09/23 08:39:15;;;;;;;;;;;;;;;7.08;79.71;100153.84;5077228;28;19916;-78
2021/09/23 08:41:41;;;;;;;;;;;;;;;7.11;79.53;100144.13;5077345;28;19916;-88
2021/09/23 08:44:07;;;;;;;;;;;;;;;7.16;79.55;100139.59;5094079;28;19916;-77
2021/09/23 08:46:34;;;;;;;;;;;;;;;7.30;80.19;100140.16;5095258;28;20294;-79
2021/09/23 08:49:00;;;;;;;;;;;;;;;7.26;79.85;100130.59;5094285;28;19916;-77
2021/09/23 08:51:26;;;;;;;;;;;;;;;7.30;80.17;100136.66;5094596;28;19981;-88
2021/09/23 08:53:51;;;;;;;;;;;;;;;7.25;79.95;100131.50;5076803;28;20007;-79
2021/09/23 08:56:19;;;;;;;;;;;;;;;7.19;82.01;100140.41;5077062;28;19994;-77
2021/09/23 08:58:44;;;;;;;;;;;;;;;7.25;80.74;100131.50;5090422;28;19924;-84
2021/09/23 09:01:10;;;;;;;;;;;;;;;7.35;80.56;100132.13;5087249;28;20011;-77
2021/09/23 09:03:36;;;;;;;;;;;;;;;7.31;80.84;100136.63;5087835;28;20282;-83
2021/09/23 09:06:03;;;;;;;;;;;;;;;7.33;80.92;100129.53;5076137;28;19920;-77
2021/09/23 09:08:30;;;;;;;;;;;;;;;7.38;81.13;100135.56;5090034;28;19916;-78
2021/09/23 09:10:55;;;;;;;;;;;;;;;7.48;81.12;100133.56;5076720;28;19915;-77
2021/09/23 09:13:21;;;;;;;;;;;;;;;7.62;80.32;100142.00;5095087;28;19920;-86
2021/09/23 09:15:46;;;;;;;;;;;;;;;7.63;81.22;100134.97;5075187;28;19935;-83
2021/09/23 09:18:16;;;;;;;;;;;;;;;7.67;81.78;100131.34;5076711;28;20350;-80
2021/09/23 09:21:02;;;;;;;;;;;;;;;7.69;81.63;100134.81;5094720;28;20373;-77
2021/09/23 09:23:31;;;;;;;;;;;;;;;7.57;82.02;100140.41;5094409;28;19920;-78
2021/09/23 09:25:56;;;;;;;;;;;;;;;7.97;81.05;100134.94;5094309;28;19920;-77
2021/09/23 09:28:22;;;;;;;;;;;;;;;8.07;80.96;100132.91;5094709;28;19916;-79
2021/09/23 09:30:57;;;;;;;;;;;;;;;7.93;81.50;100125.41;5075083;28;19976;-86
2021/09/23 09:33:33;;;;;;;;;;;;;;;8.01;80.53;100135.75;5094488;28;19923;-78
2021/09/23 09:35:58;;;;;;;;;;;;;;;8.06;81.15;100127.69;5093053;28;19965;-78
2021/09/23 09:38:24;;;;;;;;;;;;;;;8.15;80.84;100132.72;5093733;28;20015;-78
2021/09/23 09:40:53;;;;;;;;;;;;;;;7.87;82.63;100129.97;5094381;28;19986;-82
2021/09/23 09:43:19;;;;;;;;;;;;;;;7.94;82.44;100128.88;5073567;28;20019;-88
2021/09/23 09:45:44;;;;;;;;;;;;;;;8.08;81.93;100124.09;5092178;28;20418;-85
2021/09/23 09:48:09;;;;;;;;;;;;;;;8.45;81.96;100115.19;5072330;28;20264;-87
2021/09/23 09:50:36;;;;;;;;;;;;;;;8.18;81.38;100119.44;5074093;28;20023;-88
2021/09/23 09:53:19;;;;;;;;;;;;;;;8.22;82.53;100112.28;5073944;28;20355;-87
2021/09/23 09:55:45;;;;;;;;;;;;;;;8.29;81.83;100119.16;5070198;28;19916;-88
2021/09/23 09:58:11;;;;;;;;;;;;;;;8.18;82.39;100104.47;5072591;28;19967;-79
2021/09/23 10:00:37;;;;;;;;;;;;;;;8.40;81.82;100097.72;5071026;28;19916;-83
2021/09/23 10:03:02;;;;;;;;;;;;;;;8.37;82.30;100098.66;5072248;28;19921;-89
2021/09/23 10:05:28;;;;;;;;;;;;;;;8.11;83.45;100094.13;5072758;28;20213;-81
2021/09/23 10:07:54;;;;;;;;;;;;;;;8.63;84.97;100091.78;5073745;28;19916;-78
2021/09/23 10:10:24;;;;;;;;;;;;;;;8.54;80.95;100096.44;5070605;28;19921;-87
2021/09/23 10:12:51;;;;;;;;;;;;;;;8.36;83.48;100089.03;5069578;28;20291;-79
2021/09/23 10:15:17;;;;;;;;;;;;;;;8.46;82.81;100074.66;5066197;28;19916;-79
2021/09/23 10:17:44;;;;;;;;;;;;;;;8.64;81.72;100073.25;5073535;28;19923;-84
2021/09/23 10:20:11;;;;;;;;;;;;;;;8.68;81.00;100066.97;5072422;28;19968;-81
2021/09/23 10:22:37;;;;;;;;;;;;;;;8.39;85.19;100069.56;5072286;28;20425;-89
2021/09/23 10:25:05;;;;;;;;;;;;;;;8.30;87.10;100068.09;5072180;28;20011;-86
2021/09/23 10:30:15;;;;;;;;;;;;;;;8.50;83.31;100062.22;5071908;28;19923;-88
2021/09/23 10:32:40;;;;;;;;;;;;;;;8.70;82.62;100053.72;5072078;28;20019;-88
2021/09/23 10:35:06;;;;;;;;;;;;;;;8.44;85.40;100063.28;5073160;28;20268;-89
2021/09/23 10:37:32;;;;;;;;;;;;;;;8.45;87.78;100062.38;5071872;28;19922;-88
2021/09/23 10:39:57;;;;;;;;;;;;;;;8.48;88.07;100057.00;5071754;28;19931;-80
2021/09/23 10:42:23;;;;;;;;;;;;;;;8.50;86.06;100052.56;5072821;28;20090;-87
2021/09/23 10:44:49;;;;;;;;;;;;;;;8.55;84.16;100044.47;5071878;28;19917;-87
2021/09/23 10:47:25;;;;;;;;;;;;;;;8.57;84.96;100044.41;5084635;28;20426;-88
2021/09/23 10:49:51;;;;;;;;;;;;;;;8.65;83.71;100047.72;5092596;28;19928;-85
2021/09/23 10:52:18;;;;;;;;;;;;;;;8.64;85.88;100041.53;5089878;28;20264;-80
2021/09/23 10:54:43;;;;;;;;;;;;;;;8.63;86.46;100038.94;5093028;28;19916;-88
2021/09/23 10:57:09;;;;;;;;;;;;;;;8.54;87.13;100035.69;5075025;28;19923;-80
2021/09/23 10:59:34;;;;;;;;;;;;;;;8.65;85.43;100027.44;5072874;28;19916;-84
2021/09/23 11:02:18;;;;;;;;;;;;;;;8.75;84.04;100021.88;5091861;28;20393;-83
2021/09/23 11:04:45;;;;;;;;;;;;;;;8.79;84.30;100013.81;5074879;28;19949;-87
2021/09/23 11:07:10;;;;;;;;;;;;;;;8.88;83.12;100010.84;5066457;28;20381;-81
2021/09/23 11:09:37;;;;;;;;;;;;;;;8.82;84.44;100016.34;5092702;28;19916;-79
2021/09/23 11:12:05;;;;;;;;;;;;;;;8.98;84.94;100013.19;5074555;28;19920;-78
2021/09/23 11:14:32;;;;;;;;;;;;;;;9.25;83.21;100001.72;5090578;28;20071;-79
2021/09/23 11:16:58;;;;;;;;;;;;;;;9.08;83.21;99998.78;5092754;28;19916;-85
2021/09/23 11:19:24;;;;;;;;;;;;;;;9.15;83.98;99997.63;5074547;28;19992;-78
2021/09/23 11:21:52;;;;;;;;;;;;;;;8.91;84.79;99991.38;5065631;28;19974;-78
2021/09/23 11:24:17;;;;;;;;;;;;;;;9.11;85.42;99987.22;5092432;28;20401;-78
2021/09/23 11:26:43;;;;;;;;;;;;;;;9.05;84.63;99981.22;5074235;28;19968;-78
2021/09/23 11:29:11;;;;;;;;;;;;;;;9.41;84.98;99980.00;5090978;28;19920;-79
2021/09/23 11:31:45;;;;;;;;;;;;;;;9.11;84.32;99976.63;5092388;28;20018;-80
2021/09/23 11:34:10;;;;;;;;;;;;;;;9.45;83.00;99974.56;5073999;28;20007;-84
2021/09/23 11:36:40;;;;;;;;;;;;;;;9.03;83.61;99959.28;5074269;28;20011;-87
2021/09/23 11:39:06;;;;;;;;;;;;;;;9.08;84.11;99967.06;5091835;28;19920;-86
2021/09/23 11:41:31;;;;;;;;;;;;;;;9.12;83.94;99968.66;5092143;28;19927;-84
2021/09/23 11:43:56;;;;;;;;;;;;;;;9.24;83.50;99968.25;5091699;28;19920;-79
2021/09/23 11:46:30;;;;;;;;;;;;;;;9.26;83.31;99968.19;5066986;28;19920;-83
2021/09/23 11:48:59;;;;;;;;;;;;;;;9.29;84.57;99970.72;5085665;28;20015;-78
2021/09/23 11:51:28;;;;;;;;;;;;;;;9.32;83.82;99969.75;5071644;28;20018;-78
2021/09/23 11:53:54;;;;;;;;;;;;;;;9.36;83.95;99955.50;5090593;28;19931;-83
2021/09/23 11:56:20;;;;;;;;;;;;;;;9.61;83.82;99963.44;5073931;28;19916;-78
2021/09/23 11:58:47;;;;;;;;;;;;;;;9.45;84.32;99963.97;5073741;28;19920;-79
2021/09/23 12:01:13;;;;;;;;;;;;;;;9.36;83.35;99952.88;5069362;28;19961;-78
2021/09/23 12:03:41;;;;;;;;;;;;;;;9.46;83.15;99956.91;5073241;28;19920;-79
2021/09/23 12:06:10;;;;;;;;;;;;;;;9.26;83.98;99954.97;5089070;28;19967;-79
2021/09/23 12:08:35;;;;;;;;;;;;;;;9.27;84.37;99957.56;5089302;28;19917;-89
2021/09/23 12:11:04;;;;;;;;;;;;;;;9.38;84.05;99948.38;5075831;28;19924;-79
2021/09/23 12:13:34;;;;;;;;;;;;;;;9.62;84.32;99944.88;5095797;28;19953;-86
2021/09/23 12:16:01;;;;;;;;;;;;;;;9.63;84.95;99943.94;5093466;28;19924;-82
2021/09/23 12:18:27;;;;;;;;;;;;;;;9.36;83.92;99929.06;5095039;28;19920;-89
2021/09/23 12:20:53;;;;;;;;;;;;;;;9.33;86.17;99923.88;5077707;28;20428;-87
2021/09/23 12:23:21;;;;;;;;;;;;;;;9.45;84.79;99939.31;5095950;28;19924;-84
2021/09/23 12:26:03;;;;;;;;;;;;;;;9.34;86.72;99931.75;5076899;28;19917;-82
2021/09/23 12:28:29;;;;;;;;;;;;;;;9.51;84.48;99925.88;5096026;28;20424;-79
2021/09/23 12:31:01;;;;;;;;;;;;;;;9.73;84.93;99931.25;5093008;28;19916;-79
2021/09/23 12:33:26;;;;;;;;;;;;;;;9.43;83.84;99926.16;5077667;28;20355;-79
2021/09/23 12:36:13;;;;;;;;;;;;;;;9.47;85.62;99923.41;5077383;28;19969;-86
2021/09/23 12:38:39;;;;;;;;;;;;;;;9.41;84.64;99919.19;5088644;28;19919;-89
2021/09/23 12:41:18;;;;;;;;;;;;;;;9.76;88.85;99911.75;5085791;28;19915;-78
2021/09/23 12:43:43;;;;;;;;;;;;;;;9.70;83.03;99911.97;5095424;28;19931;-78
2021/09/23 12:46:13;;;;;;;;;;;;;;;9.55;85.20;99913.41;5075751;28;19928;-86
2021/09/23 12:48:39;;;;;;;;;;;;;;;9.38;85.07;99912.25;5076598;28;19985;-86
2021/09/23 12:51:04;;;;;;;;;;;;;;;9.40;85.75;99912.19;5089280;28;20363;-88
2021/09/23 12:53:30;;;;;;;;;;;;;;;9.58;84.79;99900.91;5076334;28;19931;-80
2021/09/23 12:55:55;;;;;;;;;;;;;;;9.55;84.85;99908.97;5095059;28;19966;-81
2021/09/23 12:58:20;;;;;;;;;;;;;;;9.50;84.62;99905.63;5094906;28;20289;-82
2021/09/23 13:00:47;;;;;;;;;;;;;;;9.62;84.64;99906.94;5094078;28;19966;-79
2021/09/23 13:03:13;;;;;;;;;;;;;;;9.57;84.60;99901.84;5094219;28;20381;-78
2021/09/23 13:05:40;;;;;;;;;;;;;;;9.57;85.22;99896.56;5094486;28;19923;-78
2021/09/23 13:08:11;;;;;;;;;;;;;;;9.60;84.10;99891.13;5094915;28;19916;-79
2021/09/23 13:10:36;;;;;;;;;;;;;;;9.70;83.95;99883.75;5094912;28;19959;-79
2021/09/23 13:13:03;;;;;;;;;;;;;;;9.71;84.64;99882.78;5095045;28;19970;-87
2021/09/23 13:15:43;;;;;;;;;;;;;;;9.67;84.94;99885.63;5093474;28;19916;-79
2021/09/23 13:18:32;;;;;;;;;;;;;;;9.63;86.12;99876.94;5094654;28;20417;-89
2021/09/23 13:21:01;;;;;;;;;;;;;;;9.79;83.84;99883.38;5094588;28;19951;-83
2021/09/23 13:23:31;;;;;;;;;;;;;;;9.68;84.51;99866.19;5093975;28;19916;-78
2021/09/23 13:25:58;;;;;;;;;;;;;;;9.64;84.45;99870.75;5076438;28;19923;-86
2021/09/23 13:28:31;;;;;;;;;;;;;;;9.50;85.36;99878.31;5094637;28;20355;-80
2021/09/23 13:31:01;;;;;;;;;;;;;;;9.67;85.32;99872.38;5093207;28;20003;-80
2021/09/23 13:33:27;;;;;;;;;;;;;;;9.70;85.68;99853.75;5076189;28;19916;-78
2021/09/23 13:35:52;;;;;;;;;;;;;;;9.74;84.79;99850.09;5076449;28;19924;-82
2021/09/23 13:38:18;;;;;;;;;;;;;;;9.56;86.12;99852.50;5094308;28;19912;-79
2021/09/23 13:40:44;;;;;;;;;;;;;;;9.65;84.36;99845.97;5094326;28;20363;-78
2021/09/23 13:43:10;;;;;;;;;;;;;;;9.77;84.36;99845.53;5093943;28;20018;-88
2021/09/23 13:45:35;;;;;;;;;;;;;;;9.65;84.04;99848.63;5093306;28;20379;-79
2021/09/23 13:48:01;;;;;;;;;;;;;;;9.60;86.22;99840.00;5094015;28;19970;-88
2021/09/23 13:50:26;;;;;;;;;;;;;;;9.56;86.04;99841.06;5094344;28;19923;-78
2021/09/23 13:52:51;;;;;;;;;;;;;;;9.54;86.80;99833.19;5094212;28;19961;-80
2021/09/23 13:55:16;;;;;;;;;;;;;;;9.55;86.08;99824.31;5093895;28;19927;-79
2021/09/23 13:57:42;;;;;;;;;;;;;;;9.70;86.77;99832.59;5094248;28;20357;-78
2021/09/23 14:00:10;;;;;;;;;;;;;;;9.63;85.33;99826.66;5074600;28;20480;-89
2021/09/23 14:02:36;;;;;;;;;;;;;;;9.63;85.91;99827.53;5075213;28;19977;-79
2021/09/23 14:05:01;;;;;;;;;;;;;;;9.59;86.02;99825.94;5093830;28;20379;-88
2021/09/23 14:07:28;;;;;;;;;;;;;;;9.66;86.87;99828.34;5094102;28;19916;-86
2021/09/23 14:09:55;;;;;;;;;;;;;;;9.63;86.92;99827.53;5074513;28;20688;-79
2021/09/23 14:12:20;;;;;;;;;;;;;;;9.58;86.35;99823.34;5090245;28;20310;-89
2021/09/23 14:14:46;;;;;;;;;;;;;;;9.79;89.08;99824.28;5069760;28;19924;-80
2021/09/23 14:17:11;;;;;;;;;;;;;;;9.74;85.96;99831.56;5075415;28;19920;-79
2021/09/23 14:19:37;;;;;;;;;;;;;;;9.71;87.29;99829.03;5075544;28;19961;-78
2021/09/23 14:22:03;;;;;;;;;;;;;;;9.71;87.44;99821.09;5075051;28;19920;-78
2021/09/23 14:24:28;;;;;;;;;;;;;;;9.60;86.52;99810.91;5070827;28;19923;-84
2021/09/23 14:26:53;;;;;;;;;;;;;;;9.77;84.65;99812.91;5075358;28;20403;-81
2021/09/23 14:29:19;;;;;;;;;;;;;;;9.82;85.59;99816.25;5092186;28;19942;-78
2021/09/23 14:31:45;;;;;;;;;;;;;;;9.81;86.92;99810.09;5093359;28;19959;-89
2021/09/23 14:34:11;;;;;;;;;;;;;;;9.77;86.30;99813.78;5092269;28;19920;-87
2021/09/23 14:36:36;;;;;;;;;;;;;;;9.87;86.98;99811.63;5093414;28;19917;-82
2021/09/23 14:39:03;;;;;;;;;;;;;;;9.86;88.29;99816.97;5093232;28;19916;-79
2021/09/23 14:41:29;;;;;;;;;;;;;;;9.84;87.14;99809.09;5093173;28;19927;-79
2021/09/23 14:43:54;;;;;;;;;;;;;;;10.06;86.54;99805.59;5093476;28;19916;-79
2021/09/23 14:46:19;;;;;;;;;;;;;;;9.81;86.39;99810.09;5091787;28;19931;-85
2021/09/23 14:48:44;;;;;;;;;;;;;;;9.89;85.66;99801.84;5093153;28;19922;-88
2021/09/23 14:51:10;;;;;;;;;;;;;;;9.92;89.40;99801.69;5074672;28;19965;-83
2021/09/23 14:53:35;;;;;;;;;;;;;;;9.74;87.67;99794.50;5092018;28;19959;-78
2021/09/23 14:56:00;;;;;;;;;;;;;;;9.82;86.46;99801.22;5074750;28;19981;-78
2021/09/23 14:58:26;;;;;;;;;;;;;;;9.90;88.40;99795.63;5092750;28;20383;-78
2021/09/23 15:00:51;;;;;;;;;;;;;;;10.09;90.81;99793.09;5091374;28;19960;-78
2021/09/23 15:03:21;;;;;;;;;;;;;;;9.92;88.14;99792.91;5087863;28;19962;-80
2021/09/23 15:05:47;;;;;;;;;;;;;;;9.99;88.02;99783.81;5074470;28;19927;-88
2021/09/23 15:08:12;;;;;;;;;;;;;;;9.84;86.95;99787.06;5092618;28;19920;-79
2021/09/23 15:10:37;;;;;;;;;;;;;;;9.94;86.92;99789.28;5092603;28;20329;-78
2021/09/23 15:13:02;;;;;;;;;;;;;;;9.99;85.82;99789.97;5074342;28;19920;-78
2021/09/23 15:15:28;;;;;;;;;;;;;;;10.08;86.28;99785.22;5073169;28;19923;-79
2021/09/23 15:17:53;;;;;;;;;;;;;;;10.09;87.31;99786.94;5069799;28;19924;-78
2021/09/23 15:20:19;;;;;;;;;;;;;;;10.06;85.65;99781.78;5092667;28;19989;-86
2021/09/23 15:22:45;;;;;;;;;;;;;;;10.15;84.84;99778.75;5092705;28;20362;-88
2021/09/23 15:25:14;;;;;;;;;;;;;;;10.12;89.60;99787.69;5074354;28;19959;-86
2021/09/23 15:27:39;;;;;;;;;;;;;;;10.08;87.30;99778.13;5074385;28;19982;-79
2021/09/23 15:30:05;;;;;;;;;;;;;;;9.98;86.17;99775.00;5090338;28;19970;-82
2021/09/23 15:32:30;;;;;;;;;;;;;;;9.98;86.15;99779.44;5091208;28;20013;-83
2021/09/23 15:34:55;;;;;;;;;;;;;;;10.10;86.59;99775.41;5074325;28;19916;-83
2021/09/23 15:37:20;;;;;;;;;;;;;;;10.07;85.47;99767.59;5073373;28;19924;-87
2021/09/23 15:39:46;;;;;;;;;;;;;;;10.11;85.74;99772.69;5091642;28;19916;-85
2021/09/23 15:42:11;;;;;;;;;;;;;;;10.14;84.62;99769.94;5092172;28;20409;-89
2021/09/23 15:44:39;;;;;;;;;;;;;;;10.06;85.54;99765.91;5090601;28;19927;-84
2021/09/23 15:47:04;;;;;;;;;;;;;;;10.12;84.88;99770.94;5092017;28;19924;-85
2021/09/23 15:49:30;;;;;;;;;;;;;;;10.21;85.00;99770.56;5091838;28;19924;-80
2021/09/23 15:51:55;;;;;;;;;;;;;;;10.02;85.67;99764.28;5091858;28;20363;-81
2021/09/23 15:54:20;;;;;;;;;;;;;;;10.09;86.00;99768.41;5090767;28;19924;-87
2021/09/23 15:56:45;;;;;;;;;;;;;;;10.05;87.36;99756.22;5073683;28;19916;-82
2021/09/23 15:59:11;;;;;;;;;;;;;;;9.98;87.09;99755.63;5071953;28;20018;-84
2021/09/23 16:01:36;;;;;;;;;;;;;;;9.96;85.57;99753.03;5091514;28;19955;-86
2021/09/23 16:04:02;;;;;;;;;;;;;;;10.03;85.58;99753.63;5082493;28;19962;-80
2021/09/23 16:06:27;;;;;;;;;;;;;;;10.11;85.95;99759.47;5091149;28;19924;-81
2021/09/23 16:08:52;;;;;;;;;;;;;;;10.14;85.64;99756.69;5090926;28;19923;-82
2021/09/23 16:11:18;;;;;;;;;;;;;;;10.05;84.99;99757.09;5073648;28;20371;-87
2021/09/23 16:13:43;;;;;;;;;;;;;;;10.03;86.78;99758.94;5069381;28;19995;-85
2021/09/23 16:16:08;;;;;;;;;;;;;;;10.14;85.13;99762.00;5090110;28;19977;-80
2021/09/23 16:18:33;;;;;;;;;;;;;;;9.98;85.55;99767.06;5073434;28;19927;-80
2021/09/23 16:20:59;;;;;;;;;;;;;;;10.13;85.20;99760.28;5073616;28;20019;-85
2021/09/23 16:23:24;;;;;;;;;;;;;;;10.09;85.26;99761.31;5073296;28;19916;-79
2021/09/23 16:25:49;;;;;;;;;;;;;;;10.02;85.69;99759.00;5072877;28;20081;-84
2021/09/23 16:28:15;;;;;;;;;;;;;;;10.10;85.45;99757.75;5086854;28;19920;-82
2021/09/23 16:30:40;;;;;;;;;;;;;;;10.20;85.10;99763.53;5072139;28;19917;-83
2021/09/23 16:33:06;;;;;;;;;;;;;;;10.13;84.87;99759.41;5091847;28;20349;-80
2021/09/23 16:35:31;;;;;;;;;;;;;;;10.17;85.31;99758.38;5073501;28;19943;-88
2021/09/23 16:37:56;;;;;;;;;;;;;;;10.08;85.68;99764.03;5073428;28;19960;-86
2021/09/23 16:40:22;;;;;;;;;;;;;;;9.96;86.06;99768.91;5070456;28;19920;-82
2021/09/23 16:42:47;;;;;;;;;;;;;;;10.17;85.62;99763.66;5083639;28;20044;-84
2021/09/23 16:45:14;;;;;;;;;;;;;;;10.13;85.51;99768.22;5070187;28;19920;-85
2021/09/23 16:47:40;;;;;;;;;;;;;;;10.22;85.44;99766.97;5073385;28;19924;-84
2021/09/23 16:50:06;;;;;;;;;;;;;;;10.17;85.27;99775.09;5090931;28;20367;-82
2021/09/23 16:52:31;;;;;;;;;;;;;;;10.18;86.36;99765.41;5090124;28;19977;-80
2021/09/23 16:54:57;;;;;;;;;;;;;;;10.14;85.93;99769.94;5090712;28;20009;-79
2021/09/23 16:57:22;;;;;;;;;;;;;;;10.14;86.57;99774.38;5074237;28;20355;-85
2021/09/23 16:59:47;;;;;;;;;;;;;;;10.17;87.77;99763.66;5075703;28;19916;-85
2021/09/23 17:02:12;;;;;;;;;;;;;;;10.13;86.74;99762.94;5095096;28;20555;-83
2021/09/23 17:04:38;;;;;;;;;;;;;;;10.18;86.24;99766.25;5094391;28;19924;-79
2021/09/23 17:07:05;;;;;;;;;;;;;;;10.25;85.76;99772.16;5077063;28;19987;-82
2021/09/23 17:09:30;;;;;;;;;;;;;;;10.25;86.26;99769.50;5076073;28;19924;-87
2021/09/23 17:11:55;;;;;;;;;;;;;;;10.14;85.78;99771.72;5094979;28;20271;-80
2021/09/23 17:14:21;;;;;;;;;;;;;;;10.18;85.95;99779.47;5093969;28;20008;-81
2021/09/23 17:16:46;;;;;;;;;;;;;;;10.21;85.80;99772.31;5088496;28;19927;-85
2021/09/23 17:19:11;;;;;;;;;;;;;;;10.13;85.78;99767.34;5094737;28;19916;-84
2021/09/23 17:21:37;;;;;;;;;;;;;;;10.20;85.96;99779.44;5094469;28;19924;-80
2021/09/23 17:24:02;;;;;;;;;;;;;;;10.29;85.44;99779.03;5076790;28;19939;-86
2021/09/23 17:26:32;;;;;;;;;;;;;;;10.28;85.32;99787.91;5094954;28;19919;-79
2021/09/23 17:28:57;;;;;;;;;;;;;;;10.20;85.75;99791.81;5076459;28;20289;-79
2021/09/23 17:31:22;;;;;;;;;;;;;;;10.32;85.39;99800.16;5074698;28;19922;-82
2021/09/23 17:33:47;;;;;;;;;;;;;;;10.16;85.09;99794.59;5076115;28;20329;-86
2021/09/23 17:36:13;;;;;;;;;;;;;;;10.26;85.19;99795.06;5089733;28;19931;-80
2021/09/23 17:38:38;;;;;;;;;;;;;;;10.15;85.03;99797.28;5075371;28;19927;-84
2021/09/23 17:41:04;;;;;;;;;;;;;;;10.21;85.18;99802.34;5094301;28;19928;-83
2021/09/23 17:43:29;;;;;;;;;;;;;;;10.28;85.36;99805.59;5074779;28;20379;-86
2021/09/23 17:45:54;;;;;;;;;;;;;;;10.31;85.28;99811.63;5075011;28;19920;-80
2021/09/23 17:48:22;;;;;;;;;;;;;;;10.16;85.38;99806.94;5077967;28;20020;-82
2021/09/23 17:50:47;;;;;;;;;;;;;;;10.26;85.70;99815.38;5092951;28;19933;-87
2021/09/23 17:53:12;;;;;;;;;;;;;;;10.26;85.10;99818.91;5071323;28;20011;-86
2021/09/23 17:55:40;;;;;;;;;;;;;;;10.31;84.86;99814.25;5078580;28;19916;-85
2021/09/23 17:58:06;;;;;;;;;;;;;;;10.31;85.07;99814.25;5072757;28;19920;-78
2021/09/23 18:00:32;;;;;;;;;;;;;;;10.26;85.28;99810.94;5073978;28;20010;-80
2021/09/23 18:02:57;;;;;;;;;;;;;;;10.35;85.05;99820.31;5093670;28;19918;-80
2021/09/23 18:05:22;;;;;;;;;;;;;;;10.25;84.87;99809.22;5074457;28;19935;-80
2021/09/23 18:07:47;;;;;;;;;;;;;;;10.30;84.92;99816.97;5092221;28;20435;-87
2021/09/23 18:10:13;;;;;;;;;;;;;;;10.25;85.37;99817.16;5093197;28;19931;-87
2021/09/23 18:12:38;;;;;;;;;;;;;;;10.27;84.93;99823.25;5084103;28;19916;-81
2021/09/23 18:15:04;;;;;;;;;;;;;;;10.30;85.07;99817.81;5092277;28;19924;-85
2021/09/23 18:17:29;;;;;;;;;;;;;;;10.23;84.86;99820.78;5084460;28;19920;-83
2021/09/23 18:19:55;;;;;;;;;;;;;;;10.26;85.01;99825.97;5071904;28;19928;-79
2021/09/23 18:22:20;;;;;;;;;;;;;;;10.25;84.91;99830.41;5092882;28;19928;-79
2021/09/23 18:24:46;;;;;;;;;;;;;;;10.40;84.32;99830.72;5075029;28;19946;-80
2021/09/23 18:27:11;;;;;;;;;;;;;;;10.39;84.78;99831.63;5075390;28;19924;-81
2021/09/23 18:29:36;;;;;;;;;;;;;;;10.25;84.94;99830.41;5092227;28;19923;-80
2021/09/23 18:32:02;;;;;;;;;;;;;;;10.29;84.76;99839.97;5092813;28;19928;-84
2021/09/23 18:34:27;;;;;;;;;;;;;;;10.29;84.65;99839.06;5093128;28;19924;-83
2021/09/23 18:36:53;;;;;;;;;;;;;;;10.31;84.68;99829.31;5074868;28;19924;-81
2021/09/23 18:39:18;;;;;;;;;;;;;;;10.28;85.03;99835.56;5075196;28;19920;-87
2021/09/23 18:41:44;;;;;;;;;;;;;;;10.34;84.38;99824.78;5074229;28;19956;-86
2021/09/23 18:44:10;;;;;;;;;;;;;;;10.50;84.52;99832.09;5072680;28;20009;-85
2021/09/23 18:46:35;;;;;;;;;;;;;;;10.41;84.06;99828.00;5093195;28;19971;-86
2021/09/23 18:49:01;;;;;;;;;;;;;;;10.39;84.23;99831.63;5093178;28;20368;-87
2021/09/23 18:51:26;;;;;;;;;;;;;;;10.31;84.90;99839.91;5074463;28;20460;-86
2021/09/23 18:53:51;;;;;;;;;;;;;;;10.24;85.14;99841.91;5086860;28;19920;-80
2021/09/23 18:56:17;;;;;;;;;;;;;;;10.26;84.88;99848.03;5091636;28;20443;-86
2021/09/23 18:58:43;;;;;;;;;;;;;;;10.41;83.72;99845.72;5084979;28;19927;-86
2021/09/23 19:01:08;;;;;;;;;;;;;;;10.23;84.73;99848.16;5070887;28;20314;-82
2021/09/23 19:03:33;;;;;;;;;;;;;;;10.30;84.55;99841.66;5073601;28;19920;-79
2021/09/23 19:05:59;;;;;;;;;;;;;;;10.23;84.76;99842.84;5074867;28;19924;-85
2021/09/23 19:08:24;;;;;;;;;;;;;;;10.32;84.64;99847.81;5073090;28;19943;-87
2021/09/23 19:10:49;;;;;;;;;;;;;;;10.31;84.95;99840.75;5074566;28;19927;-86